sensor_id;sensor_type;location;lat;lon;timestamp;temperature;humidity
11446;DHT22;5779;64.178;15.432;2022-10-31T00:00:40;-1.60;99.90
11446;DHT22;5779;64.178;15.432;2022-10-31T00:03:26;-1.60;99.90
11446;DHT22;5779;64.178;15.432;2022-10-31T00:06:13;-1.70;99.90
11446;DHT22;5779;64.178;15.432;2022-10-31T00:09:04;-1.70;99.90
11446;DHT22;5779;64.178;15.432;2022-10-31T00:11:51;-1.80;99.90
11446;DHT22;5779;64.178;15.432;2022-10-31T00:14:39;-1.60;99.90
11446;DHT22;5779;64.178;15.432;2022-10-31T00:17:25;-1.60;99.90
11446;DHT22;5779;64.178;15.432;2022-10-31T00:20:12;-1.60;99.90
11446;DHT22;5779;64.178;15.432;2022-10-31T00:22:59;-1.70;99.90
11446;DHT22;5779;64.178;15.432;2022-10-31T00:25:46;-1.80;99.90
11446;DHT22;5779;64.178;15.432;2022-10-31T00:28:33;-1.70;99.90
11446;DHT22;5779;64.178;15.432;2022-10-31T00:31:22;-1.60;99.90
11446;DHT22;5779;64.178;15.432;2022-10-31T00:34:09;-1.70;99.90
11446;DHT22;5779;64.178;15.432;2022-10-31T00:36:56;-1.80;99.90
11446;DHT22;5779;64.178;15.432;2022-10-31T00:39:42;-1.80;99.90
11446;DHT22;5779;64.178;15.432;2022-10-31T00:42:30;-1.80;99.90
11446;DHT22;5779;64.178;15.432;2022-10-31T00:45:17;-1.70;99.90
11446;DHT22;5779;64.178;15.432;2022-10-31T00:48:05;-1.40;99.90
11446;DHT22;5779;64.178;15.432;2022-10-31T00:50:52;-1.30;99.90
11446;DHT22;5779;64.178;15.432;2022-10-31T00:53:38;-1.20;99.90
11446;DHT22;5779;64.178;15.432;2022-10-31T00:56:25;-0.90;99.90
11446;DHT22;5779;64.178;15.432;2022-10-31T00:59:12;-0.70;99.90
11446;DHT22;5779;64.178;15.432;2022-10-31T01:01:58;-0.80;99.90
11446;DHT22;5779;64.178;15.432;2022-10-31T01:04:46;-0.80;99.90
11446;DHT22;5779;64.178;15.432;2022-10-31T01:07:35;-0.70;99.90
11446;DHT22;5779;64.178;15.432;2022-10-31T01:10:22;-0.50;99.90
11446;DHT22;5779;64.178;15.432;2022-10-31T01:13:09;-0.60;99.90
11446;DHT22;5779;64.178;15.432;2022-10-31T01:15:56;-0.80;99.90
11446;DHT22;5779;64.178;15.432;2022-10-31T01:18:44;-0.70;99.90
11446;DHT22;5779;64.178;15.432;2022-10-31T01:21:32;-0.60;99.90
11446;DHT22;5779;64.178;15.432;2022-10-31T01:24:19;-0.70;99.90
11446;DHT22;5779;64.178;15.432;2022-10-31T01:27:05;-0.70;99.90
11446;DHT22;5779;64.178;15.432;2022-10-31T01:29:52;-0.80;99.90
11446;DHT22;5779;64.178;15.432;2022-10-31T01:32:39;-0.70;99.90
11446;DHT22;5779;64.178;15.432;2022-10-31T01:35:25;-0.80;99.90
11446;DHT22;5779;64.178;15.432;2022-10-31T01:38:14;-1.00;99.90
11446;DHT22;5779;64.178;15.432;2022-10-31T01:41:00;-1.00;99.90
11446;DHT22;5779;64.178;15.432;2022-10-31T01:43:49;-0.80;99.90
11446;DHT22;5779;64.178;15.432;2022-10-31T01:46:38;-0.70;99.90
11446;DHT22;5779;64.178;15.432;2022-10-31T01:49:33;-0.80;99.90
11446;DHT22;5779;64.178;15.432;2022-10-31T01:52:22;-0.80;99.90
11446;DHT22;5779;64.178;15.432;2022-10-31T01:55:15;-0.80;99.90
11446;DHT22;5779;64.178;15.432;2022-10-31T01:58:06;-0.70;99.90
11446;DHT22;5779;64.178;15.432;2022-10-31T02:00:57;-0.80;99.90
11446;DHT22;5779;64.178;15.432;2022-10-31T02:03:45;-0.80;99.90
11446;DHT22;5779;64.178;15.432;2022-10-31T02:06:37;-0.60;99.90
11446;DHT22;5779;64.178;15.432;2022-10-31T02:09:25;-0.60;99.90
11446;DHT22;5779;64.178;15.432;2022-10-31T02:12:15;-0.60;99.90
11446;DHT22;5779;64.178;15.432;2022-10-31T02:15:03;-0.90;99.90
11446;DHT22;5779;64.178;15.432;2022-10-31T02:17:50;-1.10;99.90
11446;DHT22;5779;64.178;15.432;2022-10-31T02:20:45;-1.00;99.90
11446;DHT22;5779;64.178;15.432;2022-10-31T02:27:04;-1.00;99.90
11446;DHT22;5779;64.178;15.432;2022-10-31T02:30:13;-1.00;99.90
11446;DHT22;5779;64.178;15.432;2022-10-31T02:33:16;-1.00;99.90
11446;DHT22;5779;64.178;15.432;2022-10-31T02:36:11;-1.10;99.90
11446;DHT22;5779;64.178;15.432;2022-10-31T02:39:06;-1.00;99.90
11446;DHT22;5779;64.178;15.432;2022-10-31T02:42:03;-1.00;99.90
11446;DHT22;5779;64.178;15.432;2022-10-31T02:44:58;-0.90;99.90
11446;DHT22;5779;64.178;15.432;2022-10-31T02:47:49;-0.90;99.90
11446;DHT22;5779;64.178;15.432;2022-10-31T02:50:42;-0.70;99.90
11446;DHT22;5779;64.178;15.432;2022-10-31T02:53:32;-0.60;99.90
11446;DHT22;5779;64.178;15.432;2022-10-31T02:56:19;-0.20;99.90
11446;DHT22;5779;64.178;15.432;2022-10-31T02:59:06;0.00;99.90
11446;DHT22;5779;64.178;15.432;2022-10-31T03:02:12;-0.20;99.90
11446;DHT22;5779;64.178;15.432;2022-10-31T03:08:21;-0.50;99.90
11446;DHT22;5779;64.178;15.432;2022-10-31T03:11:09;-0.60;99.90
11446;DHT22;5779;64.178;15.432;2022-10-31T03:13:59;-0.60;99.90
11446;DHT22;5779;64.178;15.432;2022-10-31T03:16:49;-0.70;99.90
11446;DHT22;5779;64.178;15.432;2022-10-31T03:19:41;-0.50;99.90
11446;DHT22;5779;64.178;15.432;2022-10-31T03:22:31;-0.60;99.90
11446;DHT22;5779;64.178;15.432;2022-10-31T03:25:20;-0.60;99.90
11446;DHT22;5779;64.178;15.432;2022-10-31T03:28:07;-0.70;99.90
11446;DHT22;5779;64.178;15.432;2022-10-31T03:30:55;-0.70;99.90
11446;DHT22;5779;64.178;15.432;2022-10-31T03:33:43;-0.70;99.90
11446;DHT22;5779;64.178;15.432;2022-10-31T03:36:33;-0.60;99.90
11446;DHT22;5779;64.178;15.432;2022-10-31T03:39:22;-0.50;99.90
11446;DHT22;5779;64.178;15.432;2022-10-31T03:42:14;-0.40;99.90
11446;DHT22;5779;64.178;15.432;2022-10-31T03:45:03;-0.40;99.90
11446;DHT22;5779;64.178;15.432;2022-10-31T03:47:52;-0.40;99.90
11446;DHT22;5779;64.178;15.432;2022-10-31T03:50:44;-0.20;99.90
11446;DHT22;5779;64.178;15.432;2022-10-31T03:53:36;0.00;99.90
11446;DHT22;5779;64.178;15.432;2022-10-31T03:56:29;0.10;99.90
11446;DHT22;5779;64.178;15.432;2022-10-31T03:59:26;0.20;99.90
11446;DHT22;5779;64.178;15.432;2022-10-31T04:02:15;0.20;99.90
11446;DHT22;5779;64.178;15.432;2022-10-31T04:05:03;0.10;99.90
11446;DHT22;5779;64.178;15.432;2022-10-31T04:07:54;0.10;99.90
11446;DHT22;5779;64.178;15.432;2022-10-31T04:10:43;0.10;99.90
11446;DHT22;5779;64.178;15.432;2022-10-31T04:13:34;0.20;99.90
11446;DHT22;5779;64.178;15.432;2022-10-31T04:16:25;0.30;99.90
11446;DHT22;5779;64.178;15.432;2022-10-31T04:19:13;0.20;99.90
11446;DHT22;5779;64.178;15.432;2022-10-31T04:22:00;0.30;99.90
11446;DHT22;5779;64.178;15.432;2022-10-31T04:24:47;0.30;99.90
11446;DHT22;5779;64.178;15.432;2022-10-31T04:27:34;0.20;99.90
11446;DHT22;5779;64.178;15.432;2022-10-31T04:30:21;0.20;99.90
11446;DHT22;5779;64.178;15.432;2022-10-31T04:33:09;0.00;99.90
11446;DHT22;5779;64.178;15.432;2022-10-31T04:35:55;-0.10;99.90
11446;DHT22;5779;64.178;15.432;2022-10-31T04:38:42;-0.10;99.90
11446;DHT22;5779;64.178;15.432;2022-10-31T04:41:29;0.10;99.90
11446;DHT22;5779;64.178;15.432;2022-10-31T04:44:16;0.30;99.90
11446;DHT22;5779;64.178;15.432;2022-10-31T04:47:03;0.30;99.90
11446;DHT22;5779;64.178;15.432;2022-10-31T04:49:51;0.40;99.90
11446;DHT22;5779;64.178;15.432;2022-10-31T04:52:39;0.20;99.90
11446;DHT22;5779;64.178;15.432;2022-10-31T04:55:25;0.20;99.90
11446;DHT22;5779;64.178;15.432;2022-10-31T04:58:12;0.20;99.90
11446;DHT22;5779;64.178;15.432;2022-10-31T05:00:58;0.20;99.90
11446;DHT22;5779;64.178;15.432;2022-10-31T05:03:45;0.20;99.90
11446;DHT22;5779;64.178;15.432;2022-10-31T05:06:33;0.30;99.90
11446;DHT22;5779;64.178;15.432;2022-10-31T05:09:20;0.30;99.90
11446;DHT22;5779;64.178;15.432;2022-10-31T05:12:06;0.10;99.90
11446;DHT22;5779;64.178;15.432;2022-10-31T05:14:53;-0.10;99.90
11446;DHT22;5779;64.178;15.432;2022-10-31T05:17:40;-0.10;99.90
11446;DHT22;5779;64.178;15.432;2022-10-31T05:20:28;0.00;99.90
11446;DHT22;5779;64.178;15.432;2022-10-31T05:23:16;0.10;99.90
11446;DHT22;5779;64.178;15.432;2022-10-31T05:26:03;0.20;99.90
11446;DHT22;5779;64.178;15.432;2022-10-31T05:28:49;0.40;99.90
11446;DHT22;5779;64.178;15.432;2022-10-31T05:31:36;0.50;99.90
11446;DHT22;5779;64.178;15.432;2022-10-31T05:34:25;0.50;99.90
11446;DHT22;5779;64.178;15.432;2022-10-31T05:37:12;0.50;99.90
11446;DHT22;5779;64.178;15.432;2022-10-31T05:40:00;0.60;99.90
11446;DHT22;5779;64.178;15.432;2022-10-31T05:42:47;0.40;99.90
11446;DHT22;5779;64.178;15.432;2022-10-31T05:45:34;0.30;99.90
11446;DHT22;5779;64.178;15.432;2022-10-31T05:48:20;0.40;99.90
11446;DHT22;5779;64.178;15.432;2022-10-31T05:51:07;0.50;99.90
11446;DHT22;5779;64.178;15.432;2022-10-31T05:53:53;0.70;99.90
11446;DHT22;5779;64.178;15.432;2022-10-31T05:56:41;0.70;99.90
11446;DHT22;5779;64.178;15.432;2022-10-31T05:59:28;0.70;99.90
11446;DHT22;5779;64.178;15.432;2022-10-31T06:02:15;0.80;99.90
11446;DHT22;5779;64.178;15.432;2022-10-31T06:05:02;0.90;99.90
11446;DHT22;5779;64.178;15.432;2022-10-31T06:07:49;0.90;99.90
11446;DHT22;5779;64.178;15.432;2022-10-31T06:10:36;1.00;99.90
11446;DHT22;5779;64.178;15.432;2022-10-31T06:13:25;1.00;99.90
11446;DHT22;5779;64.178;15.432;2022-10-31T06:16:11;1.00;99.90
11446;DHT22;5779;64.178;15.432;2022-10-31T06:18:58;1.00;99.90
11446;DHT22;5779;64.178;15.432;2022-10-31T06:21:45;1.00;99.90
11446;DHT22;5779;64.178;15.432;2022-10-31T06:24:31;1.00;99.90
11446;DHT22;5779;64.178;15.432;2022-10-31T06:27:18;1.10;99.90
11446;DHT22;5779;64.178;15.432;2022-10-31T06:30:08;1.20;99.90
11446;DHT22;5779;64.178;15.432;2022-10-31T06:32:54;1.30;99.90
11446;DHT22;5779;64.178;15.432;2022-10-31T06:35:47;1.10;99.90
11446;DHT22;5779;64.178;15.432;2022-10-31T06:38:34;1.10;99.90
11446;DHT22;5779;64.178;15.432;2022-10-31T06:41:21;1.10;99.90
11446;DHT22;5779;64.178;15.432;2022-10-31T06:44:07;1.20;99.90
11446;DHT22;5779;64.178;15.432;2022-10-31T06:46:55;1.10;99.90
11446;DHT22;5779;64.178;15.432;2022-10-31T06:49:42;1.10;99.90
11446;DHT22;5779;64.178;15.432;2022-10-31T06:52:29;1.30;99.90
11446;DHT22;5779;64.178;15.432;2022-10-31T06:55:16;1.20;99.90
11446;DHT22;5779;64.178;15.432;2022-10-31T06:58:03;1.10;99.90
11446;DHT22;5779;64.178;15.432;2022-10-31T07:00:49;1.30;99.90
11446;DHT22;5779;64.178;15.432;2022-10-31T07:03:37;1.40;99.90
11446;DHT22;5779;64.178;15.432;2022-10-31T07:06:24;1.50;99.90
11446;DHT22;5779;64.178;15.432;2022-10-31T07:09:11;1.60;99.90
11446;DHT22;5779;64.178;15.432;2022-10-31T07:11:57;1.50;99.90
11446;DHT22;5779;64.178;15.432;2022-10-31T07:14:44;1.50;99.90
11446;DHT22;5779;64.178;15.432;2022-10-31T07:17:31;1.40;99.90
11446;DHT22;5779;64.178;15.432;2022-10-31T07:20:19;1.40;99.90
11446;DHT22;5779;64.178;15.432;2022-10-31T07:23:07;1.50;99.90
11446;DHT22;5779;64.178;15.432;2022-10-31T07:25:55;1.50;99.90
11446;DHT22;5779;64.178;15.432;2022-10-31T07:28:42;1.70;99.90
11446;DHT22;5779;64.178;15.432;2022-10-31T07:31:29;1.70;99.90
11446;DHT22;5779;64.178;15.432;2022-10-31T07:34:16;1.60;99.90
11446;DHT22;5779;64.178;15.432;2022-10-31T07:37:04;1.50;99.90
11446;DHT22;5779;64.178;15.432;2022-10-31T07:39:50;1.60;99.90
11446;DHT22;5779;64.178;15.432;2022-10-31T07:42:37;1.70;99.90
11446;DHT22;5779;64.178;15.432;2022-10-31T07:45:24;1.70;99.90
11446;DHT22;5779;64.178;15.432;2022-10-31T07:48:11;1.80;99.90
11446;DHT22;5779;64.178;15.432;2022-10-31T07:50:58;1.80;99.90
11446;DHT22;5779;64.178;15.432;2022-10-31T07:53:46;1.70;99.90
11446;DHT22;5779;64.178;15.432;2022-10-31T07:56:33;1.60;99.90
11446;DHT22;5779;64.178;15.432;2022-10-31T07:59:20;1.70;99.90
11446;DHT22;5779;64.178;15.432;2022-10-31T08:02:08;1.90;99.90
11446;DHT22;5779;64.178;15.432;2022-10-31T08:04:54;1.80;99.90
11446;DHT22;5779;64.178;15.432;2022-10-31T08:07:41;1.80;99.90
11446;DHT22;5779;64.178;15.432;2022-10-31T08:10:29;1.80;99.90
11446;DHT22;5779;64.178;15.432;2022-10-31T08:13:16;1.90;99.90
11446;DHT22;5779;64.178;15.432;2022-10-31T08:16:03;1.80;99.90
11446;DHT22;5779;64.178;15.432;2022-10-31T08:18:52;2.00;99.90
11446;DHT22;5779;64.178;15.432;2022-10-31T08:21:40;2.00;99.90
11446;DHT22;5779;64.178;15.432;2022-10-31T08:24:27;2.00;99.90
11446;DHT22;5779;64.178;15.432;2022-10-31T08:27:15;2.00;99.90
11446;DHT22;5779;64.178;15.432;2022-10-31T08:30:02;2.00;99.90
11446;DHT22;5779;64.178;15.432;2022-10-31T08:32:57;2.00;99.90
11446;DHT22;5779;64.178;15.432;2022-10-31T08:35:45;2.10;99.90
11446;DHT22;5779;64.178;15.432;2022-10-31T08:38:32;1.80;99.90
11446;DHT22;5779;64.178;15.432;2022-10-31T08:41:19;1.70;99.90
11446;DHT22;5779;64.178;15.432;2022-10-31T08:44:07;1.80;99.90
11446;DHT22;5779;64.178;15.432;2022-10-31T08:46:54;1.80;99.90
11446;DHT22;5779;64.178;15.432;2022-10-31T08:49:41;1.70;99.90
11446;DHT22;5779;64.178;15.432;2022-10-31T08:52:27;1.70;99.90
11446;DHT22;5779;64.178;15.432;2022-10-31T08:55:14;1.60;99.90
11446;DHT22;5779;64.178;15.432;2022-10-31T08:58:02;1.70;99.90
11446;DHT22;5779;64.178;15.432;2022-10-31T09:00:52;1.90;99.90
11446;DHT22;5779;64.178;15.432;2022-10-31T09:03:39;1.90;99.90
11446;DHT22;5779;64.178;15.432;2022-10-31T09:06:25;2.10;99.90
11446;DHT22;5779;64.178;15.432;2022-10-31T09:09:12;2.30;99.90
11446;DHT22;5779;64.178;15.432;2022-10-31T09:11:58;2.40;99.90
11446;DHT22;5779;64.178;15.432;2022-10-31T09:14:45;2.40;99.90
11446;DHT22;5779;64.178;15.432;2022-10-31T09:17:33;2.50;99.90
11446;DHT22;5779;64.178;15.432;2022-10-31T09:20:20;2.20;99.90
11446;DHT22;5779;64.178;15.432;2022-10-31T09:23:09;2.20;99.90
11446;DHT22;5779;64.178;15.432;2022-10-31T09:26:00;2.10;99.90
11446;DHT22;5779;64.178;15.432;2022-10-31T09:28:47;2.30;99.90
11446;DHT22;5779;64.178;15.432;2022-10-31T09:31:36;2.40;99.90
11446;DHT22;5779;64.178;15.432;2022-10-31T09:34:24;2.40;99.90
11446;DHT22;5779;64.178;15.432;2022-10-31T09:37:11;2.10;99.90
11446;DHT22;5779;64.178;15.432;2022-10-31T09:39:57;2.20;99.90
11446;DHT22;5779;64.178;15.432;2022-10-31T09:42:55;2.30;99.90
11446;DHT22;5779;64.178;15.432;2022-10-31T09:45:51;2.30;99.90
11446;DHT22;5779;64.178;15.432;2022-10-31T09:48:55;2.40;99.90
11446;DHT22;5779;64.178;15.432;2022-10-31T09:51:51;2.50;99.90
11446;DHT22;5779;64.178;15.432;2022-10-31T09:54:43;2.50;99.90
11446;DHT22;5779;64.178;15.432;2022-10-31T09:57:33;2.60;99.90
11446;DHT22;5779;64.178;15.432;2022-10-31T10:00:21;2.60;99.90
11446;DHT22;5779;64.178;15.432;2022-10-31T10:03:12;2.50;99.90
11446;DHT22;5779;64.178;15.432;2022-10-31T10:06:11;2.30;99.90
11446;DHT22;5779;64.178;15.432;2022-10-31T10:08:59;2.00;99.90
11446;DHT22;5779;64.178;15.432;2022-10-31T10:11:55;1.60;99.90
11446;DHT22;5779;64.178;15.432;2022-10-31T10:14:59;1.40;99.90
11446;DHT22;5779;64.178;15.432;2022-10-31T10:17:56;1.50;99.90
11446;DHT22;5779;64.178;15.432;2022-10-31T10:21:05;1.70;99.90
11446;DHT22;5779;64.178;15.432;2022-10-31T10:27:16;2.10;99.90
11446;DHT22;5779;64.178;15.432;2022-10-31T10:30:10;2.20;99.90
11446;DHT22;5779;64.178;15.432;2022-10-31T10:32:58;1.70;99.90
11446;DHT22;5779;64.178;15.432;2022-10-31T10:35:48;1.70;99.90
11446;DHT22;5779;64.178;15.432;2022-10-31T10:38:38;1.70;99.90
11446;DHT22;5779;64.178;15.432;2022-10-31T10:41:33;1.50;99.90
11446;DHT22;5779;64.178;15.432;2022-10-31T10:44:21;1.30;99.90
11446;DHT22;5779;64.178;15.432;2022-10-31T10:47:07;1.10;99.90
11446;DHT22;5779;64.178;15.432;2022-10-31T10:50:15;1.00;99.90
11446;DHT22;5779;64.178;15.432;2022-10-31T10:53:12;1.00;99.90
11446;DHT22;5779;64.178;15.432;2022-10-31T10:56:14;1.00;99.90
11446;DHT22;5779;64.178;15.432;2022-10-31T10:59:03;1.10;99.90
11446;DHT22;5779;64.178;15.432;2022-10-31T11:01:52;1.10;99.90
11446;DHT22;5779;64.178;15.432;2022-10-31T11:04:40;1.10;99.90
11446;DHT22;5779;64.178;15.432;2022-10-31T11:07:37;1.20;99.90
11446;DHT22;5779;64.178;15.432;2022-10-31T11:10:25;1.30;99.90
11446;DHT22;5779;64.178;15.432;2022-10-31T11:13:21;1.40;99.90
11446;DHT22;5779;64.178;15.432;2022-10-31T11:16:11;1.40;99.90
11446;DHT22;5779;64.178;15.432;2022-10-31T11:19:15;1.30;99.90
11446;DHT22;5779;64.178;15.432;2022-10-31T11:22:07;1.20;99.90
11446;DHT22;5779;64.178;15.432;2022-10-31T11:24:54;1.20;99.90
11446;DHT22;5779;64.178;15.432;2022-10-31T11:27:41;1.20;99.90
11446;DHT22;5779;64.178;15.432;2022-10-31T11:30:28;1.30;99.90
11446;DHT22;5779;64.178;15.432;2022-10-31T11:33:19;1.30;99.90
11446;DHT22;5779;64.178;15.432;2022-10-31T11:36:15;1.50;99.90
11446;DHT22;5779;64.178;15.432;2022-10-31T11:39:05;1.60;99.90
11446;DHT22;5779;64.178;15.432;2022-10-31T11:41:54;1.40;99.90
11446;DHT22;5779;64.178;15.432;2022-10-31T11:44:42;1.30;99.90
11446;DHT22;5779;64.178;15.432;2022-10-31T11:47:30;1.30;99.90
11446;DHT22;5779;64.178;15.432;2022-10-31T11:50:20;1.20;99.90
11446;DHT22;5779;64.178;15.432;2022-10-31T11:53:15;1.10;99.90
11446;DHT22;5779;64.178;15.432;2022-10-31T11:56:12;1.10;99.90
11446;DHT22;5779;64.178;15.432;2022-10-31T11:59:02;1.00;99.90
11446;DHT22;5779;64.178;15.432;2022-10-31T12:01:51;1.00;99.90
11446;DHT22;5779;64.178;15.432;2022-10-31T12:04:41;1.10;99.90
11446;DHT22;5779;64.178;15.432;2022-10-31T12:07:30;1.10;99.90
11446;DHT22;5779;64.178;15.432;2022-10-31T12:10:21;1.20;99.90
11446;DHT22;5779;64.178;15.432;2022-10-31T12:13:32;1.20;99.90
11446;DHT22;5779;64.178;15.432;2022-10-31T12:16:25;1.30;99.90
11446;DHT22;5779;64.178;15.432;2022-10-31T12:19:20;1.30;99.90
11446;DHT22;5779;64.178;15.432;2022-10-31T12:22:16;1.30;99.90
11446;DHT22;5779;64.178;15.432;2022-10-31T12:25:21;1.40;99.90
11446;DHT22;5779;64.178;15.432;2022-10-31T12:28:37;1.40;99.90
11446;DHT22;5779;64.178;15.432;2022-10-31T12:31:43;1.40;99.90
11446;DHT22;5779;64.178;15.432;2022-10-31T12:34:43;1.50;99.90
11446;DHT22;5779;64.178;15.432;2022-10-31T12:37:45;1.70;99.90
11446;DHT22;5779;64.178;15.432;2022-10-31T12:40:54;1.70;99.90
11446;DHT22;5779;64.178;15.432;2022-10-31T12:43:46;1.60;99.90
11446;DHT22;5779;64.178;15.432;2022-10-31T12:49:52;1.70;99.90
11446;DHT22;5779;64.178;15.432;2022-10-31T12:52:50;1.70;99.90
11446;DHT22;5779;64.178;15.432;2022-10-31T12:55:50;1.70;99.90
11446;DHT22;5779;64.178;15.432;2022-10-31T12:58:43;1.70;99.90
11446;DHT22;5779;64.178;15.432;2022-10-31T13:01:35;1.80;99.90
11446;DHT22;5779;64.178;15.432;2022-10-31T13:04:28;2.00;99.90
11446;DHT22;5779;64.178;15.432;2022-10-31T13:07:23;2.20;99.90
11446;DHT22;5779;64.178;15.432;2022-10-31T13:10:16;2.30;99.90
11446;DHT22;5779;64.178;15.432;2022-10-31T13:13:10;2.30;99.90
11446;DHT22;5779;64.178;15.432;2022-10-31T13:16:02;2.30;99.90
11446;DHT22;5779;64.178;15.432;2022-10-31T13:18:53;2.30;99.90
11446;DHT22;5779;64.178;15.432;2022-10-31T13:21:45;2.40;99.90
11446;DHT22;5779;64.178;15.432;2022-10-31T13:24:41;2.30;99.90
11446;DHT22;5779;64.178;15.432;2022-10-31T13:27:30;2.50;99.90
11446;DHT22;5779;64.178;15.432;2022-10-31T13:30:26;2.50;99.90
11446;DHT22;5779;64.178;15.432;2022-10-31T13:33:17;2.20;99.90
11446;DHT22;5779;64.178;15.432;2022-10-31T13:36:15;2.40;99.90
11446;DHT22;5779;64.178;15.432;2022-10-31T13:39:16;2.30;99.90
11446;DHT22;5779;64.178;15.432;2022-10-31T13:42:12;2.30;99.90
11446;DHT22;5779;64.178;15.432;2022-10-31T13:45:14;2.50;99.90
11446;DHT22;5779;64.178;15.432;2022-10-31T13:48:19;2.60;99.90
11446;DHT22;5779;64.178;15.432;2022-10-31T13:51:07;2.40;99.90
11446;DHT22;5779;64.178;15.432;2022-10-31T13:53:59;2.60;99.90
11446;DHT22;5779;64.178;15.432;2022-10-31T13:56:48;2.60;99.90
11446;DHT22;5779;64.178;15.432;2022-10-31T13:59:37;2.80;99.90
11446;DHT22;5779;64.178;15.432;2022-10-31T14:02:27;2.80;99.90
11446;DHT22;5779;64.178;15.432;2022-10-31T14:05:24;2.60;99.90
11446;DHT22;5779;64.178;15.432;2022-10-31T14:08:20;2.50;99.90
11446;DHT22;5779;64.178;15.432;2022-10-31T14:11:22;2.40;99.90
11446;DHT22;5779;64.178;15.432;2022-10-31T14:14:11;2.60;99.90
11446;DHT22;5779;64.178;15.432;2022-10-31T14:16:59;2.60;99.90
11446;DHT22;5779;64.178;15.432;2022-10-31T14:19:58;2.60;99.90
11446;DHT22;5779;64.178;15.432;2022-10-31T14:22:47;2.70;99.90
11446;DHT22;5779;64.178;15.432;2022-10-31T14:25:35;2.70;99.90
11446;DHT22;5779;64.178;15.432;2022-10-31T14:28:33;2.80;99.90
11446;DHT22;5779;64.178;15.432;2022-10-31T14:31:35;2.80;99.90
11446;DHT22;5779;64.178;15.432;2022-10-31T14:34:27;2.80;99.90
11446;DHT22;5779;64.178;15.432;2022-10-31T14:37:36;2.80;99.90
11446;DHT22;5779;64.178;15.432;2022-10-31T14:40:33;2.70;99.90
11446;DHT22;5779;64.178;15.432;2022-10-31T14:43:36;2.70;99.90
11446;DHT22;5779;64.178;15.432;2022-10-31T14:46:35;2.60;99.90
11446;DHT22;5779;64.178;15.432;2022-10-31T14:49:39;2.50;99.90
11446;DHT22;5779;64.178;15.432;2022-10-31T14:52:27;2.40;99.90
11446;DHT22;5779;64.178;15.432;2022-10-31T14:55:14;2.40;99.90
11446;DHT22;5779;64.178;15.432;2022-10-31T14:58:06;2.30;99.90
11446;DHT22;5779;64.178;15.432;2022-10-31T15:00:55;2.40;99.90
11446;DHT22;5779;64.178;15.432;2022-10-31T15:03:45;2.40;99.90
11446;DHT22;5779;64.178;15.432;2022-10-31T15:06:40;2.50;99.90
11446;DHT22;5779;64.178;15.432;2022-10-31T15:09:29;2.60;99.90
11446;DHT22;5779;64.178;15.432;2022-10-31T15:12:24;2.50;99.90
11446;DHT22;5779;64.178;15.432;2022-10-31T15:15:13;2.40;99.90
11446;DHT22;5779;64.178;15.432;2022-10-31T15:18:04;2.50;99.90
11446;DHT22;5779;64.178;15.432;2022-10-31T15:20:52;2.60;99.90
11446;DHT22;5779;64.178;15.432;2022-10-31T15:23:40;2.50;99.90
11446;DHT22;5779;64.178;15.432;2022-10-31T15:26:31;2.30;99.90
11446;DHT22;5779;64.178;15.432;2022-10-31T15:29:20;2.50;99.90
11446;DHT22;5779;64.178;15.432;2022-10-31T15:32:19;2.50;99.90
11446;DHT22;5779;64.178;15.432;2022-10-31T15:35:09;2.50;99.90
11446;DHT22;5779;64.178;15.432;2022-10-31T15:37:57;2.50;99.90
11446;DHT22;5779;64.178;15.432;2022-10-31T15:40:52;2.40;99.90
11446;DHT22;5779;64.178;15.432;2022-10-31T15:43:40;2.40;99.90
11446;DHT22;5779;64.178;15.432;2022-10-31T15:46:31;2.50;99.90
11446;DHT22;5779;64.178;15.432;2022-10-31T15:49:27;2.40;99.90
11446;DHT22;5779;64.178;15.432;2022-10-31T15:52:20;2.40;99.90
11446;DHT22;5779;64.178;15.432;2022-10-31T15:55:16;2.30;99.90
11446;DHT22;5779;64.178;15.432;2022-10-31T15:58:11;2.30;99.90
11446;DHT22;5779;64.178;15.432;2022-10-31T16:01:01;2.30;99.90
11446;DHT22;5779;64.178;15.432;2022-10-31T16:04:02;2.20;99.90
11446;DHT22;5779;64.178;15.432;2022-10-31T16:07:00;2.20;99.90
11446;DHT22;5779;64.178;15.432;2022-10-31T16:09:52;1.90;99.90
11446;DHT22;5779;64.178;15.432;2022-10-31T16:12:44;1.60;99.90
11446;DHT22;5779;64.178;15.432;2022-10-31T16:15:32;1.40;99.90
11446;DHT22;5779;64.178;15.432;2022-10-31T16:18:20;1.60;99.90
11446;DHT22;5779;64.178;15.432;2022-10-31T16:21:08;1.70;99.90
11446;DHT22;5779;64.178;15.432;2022-10-31T16:23:59;1.80;99.90
11446;DHT22;5779;64.178;15.432;2022-10-31T16:26:48;2.00;99.90
11446;DHT22;5779;64.178;15.432;2022-10-31T16:29:42;2.10;99.90
11446;DHT22;5779;64.178;15.432;2022-10-31T16:32:35;2.10;99.90
11446;DHT22;5779;64.178;15.432;2022-10-31T16:35:26;2.30;99.90
11446;DHT22;5779;64.178;15.432;2022-10-31T16:38:14;2.30;99.90
11446;DHT22;5779;64.178;15.432;2022-10-31T16:41:02;2.30;99.90
11446;DHT22;5779;64.178;15.432;2022-10-31T16:43:49;2.20;99.90
11446;DHT22;5779;64.178;15.432;2022-10-31T16:46:36;2.20;99.90
11446;DHT22;5779;64.178;15.432;2022-10-31T16:49:22;2.20;99.90
11446;DHT22;5779;64.178;15.432;2022-10-31T16:52:09;1.80;99.90
11446;DHT22;5779;64.178;15.432;2022-10-31T16:54:56;1.80;99.90
11446;DHT22;5779;64.178;15.432;2022-10-31T16:57:49;1.80;99.90
11446;DHT22;5779;64.178;15.432;2022-10-31T17:00:36;1.90;99.90
11446;DHT22;5779;64.178;15.432;2022-10-31T17:03:24;2.10;99.90
11446;DHT22;5779;64.178;15.432;2022-10-31T17:06:12;2.20;99.90
11446;DHT22;5779;64.178;15.432;2022-10-31T17:08:59;2.30;99.90
11446;DHT22;5779;64.178;15.432;2022-10-31T17:11:47;2.30;99.90
11446;DHT22;5779;64.178;15.432;2022-10-31T17:14:36;2.50;99.90
11446;DHT22;5779;64.178;15.432;2022-10-31T17:17:23;2.50;99.90
11446;DHT22;5779;64.178;15.432;2022-10-31T17:20:19;2.60;99.90
11446;DHT22;5779;64.178;15.432;2022-10-31T17:23:06;2.60;99.90
11446;DHT22;5779;64.178;15.432;2022-10-31T17:25:52;2.60;99.90
11446;DHT22;5779;64.178;15.432;2022-10-31T17:28:43;2.60;99.90
11446;DHT22;5779;64.178;15.432;2022-10-31T17:31:33;2.70;99.90
11446;DHT22;5779;64.178;15.432;2022-10-31T17:34:21;2.80;99.90
11446;DHT22;5779;64.178;15.432;2022-10-31T17:37:09;2.70;99.90
11446;DHT22;5779;64.178;15.432;2022-10-31T17:39:56;2.60;99.90
11446;DHT22;5779;64.178;15.432;2022-10-31T17:42:48;2.70;99.90
11446;DHT22;5779;64.178;15.432;2022-10-31T17:45:37;2.70;99.90
11446;DHT22;5779;64.178;15.432;2022-10-31T17:48:26;2.80;99.90
11446;DHT22;5779;64.178;15.432;2022-10-31T17:51:13;2.60;99.90
11446;DHT22;5779;64.178;15.432;2022-10-31T17:53:59;2.50;99.90
11446;DHT22;5779;64.178;15.432;2022-10-31T17:56:46;2.10;99.90
11446;DHT22;5779;64.178;15.432;2022-10-31T17:59:33;1.70;99.90
11446;DHT22;5779;64.178;15.432;2022-10-31T18:02:20;1.30;99.90
11446;DHT22;5779;64.178;15.432;2022-10-31T18:05:08;1.20;99.90
11446;DHT22;5779;64.178;15.432;2022-10-31T18:07:55;1.00;99.90
11446;DHT22;5779;64.178;15.432;2022-10-31T18:10:42;1.10;99.90
11446;DHT22;5779;64.178;15.432;2022-10-31T18:13:29;1.00;99.90
11446;DHT22;5779;64.178;15.432;2022-10-31T18:16:16;1.00;99.90
11446;DHT22;5779;64.178;15.432;2022-10-31T18:19:04;1.00;99.90
11446;DHT22;5779;64.178;15.432;2022-10-31T18:21:52;1.20;99.90